Latest Coastal Weather Observations for Robe Airport

IDS60701

Issued at 6:01 pm CST Saturday 4 July 2015 (issued every 10 minutes, with the page automatically refreshed every 10 minutes)

About coastal observations | Map of coastal stations | Coastal observations for SA | Marine services | Other Formats
Station Details ID: 026105 Name: ROBE AIRFIELD Lat: -37.18 Lon: 139.81 Height: 3.0 m
Data from the previous 72 hours. | See also: Recent months at Robe Airport
Date/Time
CST
Temp

°C
Wind Pressure Rain
since 9am
mm
Weather Cloud Vis
km
Sea
Height
m
Swell
Dir
 
Speed
knots
Gust
knots
hPa Trend Height
m
Period
s
Dir
04/06:00pm 11.7 N 7 10 1021.1 - 0.2 - - - - - - -
04/05:30pm 12.2 NNW 7 9 1021.1 - 0.2 - - - - - - -
04/05:00pm 12.6 NNW 9 12 1020.9 - 0.2 - - - - - - -
04/04:30pm 12.9 NNW 10 13 1020.8 - 0.2 - - - - - - -
04/04:00pm 13.1 NNW 10 13 1020.9 - 0.2 - - - - - - -
04/03:30pm 13.3 NNW 11 14 1021.0 - 0.2 - - - - - - -
04/03:00pm 13.4 NNW 10 14 1021.0 - 0.2 - - - - - - -
04/02:30pm 13.3 NNW 10 14 1020.9 - 0.2 - - - - - - -
04/02:00pm 13.5 NNW 10 13 1021.0 - 0.2 - - - - - - -
04/01:30pm 13.1 NNW 11 13 1021.4 - 0.2 - - - - - - -
04/01:00pm 13.1 NNW 12 16 1021.7 - 0.0 - - - - - - -
04/12:30pm 13.3 NNW 12 16 1022.0 - 0.0 - - - - - - -
04/12:00pm 13.2 NNW 11 15 1022.3 - 0.0 - - - - - - -
04/11:30am 13.0 NNW 12 15 1022.8 - 0.0 - - - - - - -
04/11:00am 13.3 NNW 11 15 1023.1 - 0.0 - - - - - - -
04/10:30am 12.9 N 10 13 1023.3 - 0.0 - - - - - - -
04/10:00am 12.5 N 8 12 1023.3 - 0.0 - - - - - - -
04/09:30am 11.9 N 7 9 1023.3 - 0.0 - - - - - - -
04/09:00am 11.5 NNW 9 11 1023.2 - 2.2 Rain - - - - - -
04/08:30am 11.6 NNW 8 11 1023.2 - 1.0 - - - - - - -
04/08:00am 11.5 NNW 8 12 1023.1 - 1.0 - - - - - - -
04/07:30am 11.3 N 7 10 1022.9 - 1.0 - - - - - - -
04/07:00am 11.5 NNW 9 12 1022.7 - 0.6 - - - - - - -
04/06:30am 11.6 NNW 9 14 1022.7 - 0.4 - - - - - - -
04/06:00am 11.6 NNW 9 12 1022.4 - 0.4 Recent precip. - - - - - -
04/05:30am 11.3 NNW 10 14 1022.2 - 0.2 - - - - - - -
04/05:00am 11.2 N 10 13 1022.2 - 0.0 - - - - - - -
04/04:30am 11.5 N 10 12 1022.2 - 0.0 - - - - - - -
04/04:00am 11.9 NNW 10 14 1022.3 - 0.0 - - - - - - -
04/03:30am 12.3 NW 9 13 1022.5 - 0.0 - - - - - - -
04/03:00am 12.5 NW 9 13 1022.6 - 0.0 - - - - - - -
04/02:30am 12.1 NNW 10 14 1022.8 - 0.0 - - - - - - -
04/02:00am 12.1 NNW 10 15 1022.8 - 0.0 - - - - - - -
04/01:30am 11.9 NW 9 14 1023.0 - 0.0 - - - - - - -
04/01:00am 12.4 NW 11 15 1023.1 - 0.0 - - - - - - -
04/12:30am 12.3 NW 12 16 1023.3 - 0.0 - - - - - - -
04/12:00am 12.2 NNW 12 18 1023.7 - 0.0 - - - - - - -
 
Date/Time
CST
Temp

°C
Wind Pressure Rain
since 9am
mm
Weather Cloud Vis
km
Sea
Height
m
Swell
Dir
 
Speed
knots
Gust
knots
hPa Trend Height
m
Period
s
Dir
03/11:30pm 12.2 NW 11 15 1024.0 - 0.0 - - - - - - -
03/11:00pm 11.9 NNW 11 14 1024.1 - 0.0 - - - - - - -
03/10:30pm 12.0 NNW 12 16 1024.3 - 0.0 - - - - - - -
03/10:00pm 11.8 NNW 11 16 1024.6 - 0.0 - - - - - - -
03/09:30pm 11.7 NNW 11 16 1024.8 - 0.0 - - - - - - -
03/09:00pm 11.7 NNW 11 17 1024.9 - 0.0 - - - - - - -
03/08:30pm 11.6 NNW 11 16 1025.1 - 0.0 - - - - - - -
03/08:00pm 11.3 NNW 11 16 1025.2 - 0.0 - - - - - - -
03/07:30pm 11.2 NNW 10 14 1025.2 - 0.0 - - - - - - -
03/07:00pm 11.2 NNW 10 14 1025.3 - 0.0 - - - - - - -
03/06:30pm 9.9 N 8 10 1025.3 - 0.0 - - - - - - -
03/06:00pm 9.7 N 7 10 1025.3 - 0.0 - - - - - - -
03/05:30pm 9.7 N 8 10 1025.3 - 0.0 - - - - - - -
03/05:00pm 9.9 N 8 9 1025.3 - 0.0 - - - - - - -
03/04:30pm 10.2 N 9 11 1025.4 - 0.0 - - - - - - -
03/04:00pm 10.6 N 11 15 1025.6 - 0.0 - - - - - - -
03/03:30pm 10.7 NNW 11 14 1025.9 - 0.0 - - - - - - -
03/03:00pm 10.8 NNW 11 15 1026.0 - 0.0 - - - - - - -
03/02:30pm 10.9 N 12 16 1026.0 - 0.0 - - - - - - -
03/02:00pm 11.0 N 13 16 1026.3 - 0.0 - - - - - - -
03/01:30pm 10.6 NNW 12 15 1026.7 - 0.0 - - - - - - -
03/01:00pm 11.0 NNW 11 15 1027.0 - 0.0 - - - - - - -
03/12:30pm 11.4 N 12 15 1027.3 - 0.0 - - - - - - -
03/12:00pm 12.4 N 11 14 1027.4 - 0.0 - - - - - - -
03/11:30am 11.5 N 13 17 1028.1 - 0.0 - - - - - - -
03/11:00am 11.1 N 13 16 1028.5 - 0.0 - - - - - - -
03/10:30am 9.9 N 10 12 1028.9 - 0.0 - - - - - - -
03/10:00am 9.0 N 11 15 1029.2 - 0.0 - - - - - - -
03/09:30am 8.8 N 8 11 1029.1 - 0.0 - - - - - - -
03/09:00am 8.2 N 8 10 1029.1 - 0.0 - - - - - - -
03/08:30am 7.5 N 6 9 1029.0 - 0.0 - - - - - - -
03/08:00am 7.3 N 6 9 1028.9 - 0.0 - - - - - - -
03/07:30am 7.0 N 6 8 1028.9 - 0.0 - - - - - - -
03/07:00am 6.7 N 5 7 1028.9 - 0.0 - - - - - - -
03/06:30am 6.7 NNE 6 7 1028.7 - 0.0 - - - - - - -
03/06:00am 6.5 NNE 4 5 1028.8 - 0.0 - - - - - - -
03/05:30am 6.9 N 4 5 1028.8 - 0.0 - - - - - - -
03/05:00am 6.6 N 4 7 1028.9 - 0.0 - - - - - - -
03/04:30am 6.8 N 5 7 1028.6 - 0.0 - - - - - - -
03/04:00am 6.6 NNE 6 7 1028.7 - 0.0 - - - - - - -
03/03:30am 6.3 NNE 4 5 1029.0 - 0.0 - - - - - - -
03/03:00am 6.3 NNE 4 5 1029.4 - 0.0 - - - - - - -
03/02:30am 5.7 NNE 3 4 1029.7 - 0.0 - - - - - - -
03/02:00am 4.8 NE 4 5 1029.5 - 0.0 - - - - - - -
03/01:30am 5.1 ENE 3 4 1029.7 - 0.0 - - - - - - -
03/01:00am 5.0 E 1 2 1030.0 - 0.0 - - - - - - -
03/12:30am 5.5 E 1 1 1030.2 - 0.0 - - - - - - -
03/12:00am 5.6 CALM 0 0 1030.4 - 0.0 - - - - - - -
 
Date/Time
CST
Temp

°C
Wind Pressure Rain
since 9am
mm
Weather Cloud Vis
km
Sea
Height
m
Swell
Dir
 
Speed
knots
Gust
knots
hPa Trend Height
m
Period
s
Dir
02/11:30pm 5.6 CALM 0 0 1030.6 - 0.0 - - - - - - -
02/11:00pm 5.1 CALM 0 1 1030.6 - 0.0 - - - - - - -
02/10:30pm 4.2 CALM 0 0 1030.5 - 0.0 - - - - - - -
02/10:00pm 4.1 CALM 0 0 1030.5 - 0.0 - - - - - - -
02/09:30pm 4.1 SE 2 3 1030.7 - 0.0 - - - - - - -
02/09:00pm 6.1 CALM 0 1 1030.6 - 0.0 - - - - - - -
02/08:30pm 7.5 CALM 0 0 1030.5 - 0.0 - - - - - - -
02/08:00pm 8.4 SSE 2 3 1030.5 - 0.0 - - - - - - -
02/07:30pm 8.7 CALM 0 0 1030.4 - 0.0 - - - - - - -
02/07:00pm 9.0 SE 1 2 1030.3 - 0.0 - - - - - - -
02/06:30pm 8.9 SSE 2 3 1030.1 - 0.0 - - - - - - -
02/06:00pm 9.8 SSE 10 14 1029.9 - 0.0 - - - - - - -
02/05:30pm 9.6 SSE 3 4 1029.8 - 0.0 - - - - - - -
02/05:00pm 10.0 S 4 6 1029.6 - 0.0 - - - - - - -
02/04:30pm 9.4 S 4 6 1029.4 - 0.0 - - - - - - -
02/04:00pm 10.4 SSE 5 6 1029.2 - 0.0 - - - - - - -
02/03:30pm 11.1 S 7 11 1028.9 - 0.0 - - - - - - -
02/03:00pm 12.5 S 9 14 1028.6 - 0.0 - - - - - - -
02/02:30pm 12.0 S 11 15 1028.6 - 0.0 - - - - - - -
02/02:00pm 12.1 S 10 14 1028.7 - 0.0 - - - - - - -
02/01:30pm 12.6 S 12 16 1028.6 - 0.0 - - - - - - -
02/01:00pm 13.1 S 13 17 1028.4 - 0.0 - - - - - - -
02/12:30pm 12.4 SSW 12 18 1028.2 - 0.0 - - - - - - -
02/12:00pm 12.7 S 12 17 1028.4 - 0.0 - - - - - - -
02/11:30am 12.6 SSW 14 19 1028.5 - 0.0 - - - - - - -
02/11:00am 12.8 SSW 14 19 1028.4 - 0.0 - - - - - - -
02/10:30am 12.6 S 15 21 1028.1 - 0.0 - - - - - - -
02/10:00am 13.0 SSW 13 18 1027.7 - 0.0 - - - - - - -
02/09:30am 12.6 SSW 16 22 1027.2 - 0.0 - - - - - - -
02/09:00am 12.0 SSW 15 24 1027.0 - 1.8 - - - - - - -
02/08:30am 12.1 SSW 13 19 1026.8 - 1.8 - - - - - - -
02/08:08am 11.6 SSW 15 25 1026.5 - 1.8 - - - - - - -
02/08:00am 11.6 SSW 16 23 1026.5 - 1.8 - - - - - - -
02/07:30am 11.9 SW 13 18 1026.2 - 1.8 - - - - - - -
02/07:00am 12.2 SW 15 22 1026.0 - 1.8 - - - - - - -
02/06:30am 11.7 SW 13 21 1025.7 - 1.8 - - - - - - -
02/06:00am 11.8 SW 17 25 1025.2 - 1.8 - - - - - - -
02/05:46am 12.2 SW 15 27 1025.0 - 1.8 - - - - - - -
02/05:30am 12.6 SW 14 24 1024.7 - 1.8 - - - - - - -
02/05:00am 12.3 SW 14 18 1024.5 - 1.8 - - - - - - -
02/04:30am 12.1 SW 12 18 1024.1 - 1.8 - - - - - - -
02/04:00am 11.9 SW 15 25 1023.9 - 1.8 - - - - - - -
02/03:30am 12.2 SW 15 24 1023.7 - 1.8 - - - - - - -
02/03:00am 12.7 SW 14 24 1023.6 - 1.8 Recent precip. - - - - - -
02/02:30am 12.6 SW 12 19 1023.5 - 1.8 - - - - - - -
02/02:00am 13.1 SW 12 18 1023.3 - 1.6 - - - - - - -
02/01:30am 13.3 SW 8 14 1023.2 - 1.6 - - - - - - -
02/01:00am 12.9 SW 5 8 1022.9 - 1.4 - - - - - - -
02/12:30am 14.2 W 11 20 1022.8 - 1.0 - - - - - - -
02/12:00am 14.5 W 12 19 1022.9 - 1.0 - - - - - - -
 
Date/Time
CST
Temp

°C
Wind Pressure Rain
since 9am
mm
Weather Cloud Vis
km
Sea
Height
m
Swell
Dir
 
Speed
knots
Gust
knots
hPa Trend Height
m
Period
s
Dir
01/11:30pm 14.6 W 10 16 1023.0 - 1.0 - - - - - - -
01/11:00pm 14.5 WNW 11 17 1023.1 - 1.0 - - - - - - -
01/10:30pm 14.2 WNW 11 16 1023.1 - 1.0 - - - - - - -
01/10:00pm 14.4 WNW 12 18 1023.2 - 1.0 - - - - - - -
01/09:30pm 14.0 WNW 11 18 1023.7 - 1.0 - - - - - - -
01/09:00pm 14.0 WNW 15 22 1023.9 - 1.0 - - - - - - -
01/08:30pm 13.9 WNW 14 22 1023.9 - 1.0 - - - - - - -
01/08:00pm 14.0 WNW 15 23 1024.0 - 1.0 - - - - - - -
01/07:30pm 13.9 NW 13 19 1023.8 - 1.0 - - - - - - -
01/07:00pm 13.8 WNW 14 21 1023.7 - 1.0 - - - - - - -
01/06:30pm 13.5 WNW 14 19 1023.6 - 1.0 - - - - - - -

Other Formats:

Comma delimited format used in spreadsheet applications
http://www.bom.gov.au/fwo/IDS60701/IDS60701.95816.axf

JavaScript Object Notation format (JSON) in row-major order
http://www.bom.gov.au/fwo/IDS60701/IDS60701.95816.json